createdAt,value
2019-04-27T00:00:18.290Z,29.85
2019-04-27T00:02:55.811Z,28.87
2019-04-27T00:05:32.334Z,28.65
2019-04-27T00:08:03.370Z,29.38
2019-04-27T00:10:39.566Z,28.46
2019-04-27T00:13:15.194Z,27.27
2019-04-27T00:15:50.151Z,27.44
2019-04-27T00:18:24.050Z,26.36
2019-04-27T00:20:57.847Z,24.35
2019-04-27T00:23:31.650Z,24.35
2019-04-27T00:26:05.632Z,24.12
2019-04-27T00:28:39.844Z,24.32
2019-04-27T00:31:14.786Z,23.40
2019-04-27T00:33:48.772Z,23.74
2019-04-27T00:36:23.277Z,23.97
2019-04-27T00:38:58.813Z,23.02
2019-04-27T00:41:34.004Z,23.26
2019-04-27T00:44:08.045Z,23.06
2019-04-27T00:46:43.123Z,21.89
2019-04-27T00:49:20.273Z,22.34
2019-04-27T00:51:53.596Z,21.09
2019-04-27T00:54:27.468Z,20.80
2019-04-27T00:57:03.226Z,21.04
2019-04-27T00:59:36.940Z,19.96
2019-04-27T01:02:13.438Z,20.60
2019-04-27T01:04:47.142Z,19.62
2019-04-27T01:07:24.879Z,20.03
2019-04-27T01:09:58.127Z,19.63
2019-04-27T01:12:33.587Z,19.56
2019-04-27T01:15:10.276Z,19.11
2019-04-27T01:17:44.212Z,18.18
2019-04-27T01:20:19.132Z,18.55
2019-04-27T01:22:54.094Z,18.26
2019-04-27T01:25:28.970Z,18.57
2019-04-27T01:28:04.006Z,18.41
2019-04-27T01:30:39.197Z,18.71
2019-04-27T01:33:15.853Z,18.73
2019-04-27T01:35:53.934Z,18.25
2019-04-27T01:38:29.390Z,18.14
2019-04-27T01:41:03.939Z,17.94
2019-04-27T01:43:39.275Z,18.10
2019-04-27T01:46:14.047Z,18.20
2019-04-27T01:48:53.830Z,18.05
2019-04-27T01:51:29.748Z,17.74
2019-04-27T01:54:04.460Z,17.45
2019-04-27T01:56:39.673Z,17.23
2019-04-27T01:59:14.793Z,17.91
2019-04-27T02:01:50.858Z,17.87
2019-04-27T02:04:26.469Z,17.01
2019-04-27T02:07:01.813Z,17.10
2019-04-27T02:09:38.308Z,16.97
2019-04-27T02:12:14.743Z,16.83
2019-04-27T02:14:51.254Z,16.94
2019-04-27T02:17:26.642Z,16.64
2019-04-27T02:20:01.313Z,16.36
2019-04-27T02:22:36.550Z,15.54
2019-04-27T02:25:11.496Z,15.35
2019-04-27T02:27:45.914Z,15.70
2019-04-27T02:30:20.678Z,16.23
2019-04-27T02:32:54.519Z,15.11
2019-04-27T02:35:30.017Z,14.66
2019-04-27T02:38:03.254Z,14.83
2019-04-27T02:40:56.353Z,14.44
2019-04-27T02:43:30.185Z,14.33
2019-04-27T02:46:03.919Z,15.31
2019-04-27T02:48:54.751Z,14.97
2019-04-27T02:51:12.742Z,14.28
2019-04-27T02:53:46.718Z,14.42
2019-04-27T02:56:20.774Z,14.56
2019-04-27T02:58:54.843Z,15.10
2019-04-27T03:01:30.513Z,14.39
2019-04-27T03:04:03.506Z,14.55
2019-04-27T03:06:39.632Z,13.34
2019-04-27T03:09:12.693Z,14.04
2019-04-27T03:11:46.264Z,14.01
2019-04-27T03:14:42.376Z,13.59
2019-04-27T03:17:22.246Z,14.20
2019-04-27T03:19:59.725Z,14.73
2019-04-27T03:22:45.836Z,13.89
2019-04-27T03:25:25.609Z,14.01
2019-04-27T03:28:05.068Z,14.23
2019-04-27T03:31:02.308Z,13.02
2019-04-27T03:33:32.469Z,13.57
2019-04-27T03:39:04.376Z,14.49
2019-04-27T03:41:40.984Z,13.88
2019-04-27T03:44:13.665Z,13.62
2019-04-27T03:46:49.627Z,12.89
2019-04-27T03:49:34.694Z,13.43
2019-04-27T03:52:00.280Z,12.49
2019-04-27T03:54:41.012Z,11.96
2019-04-27T03:57:15.222Z,13.29
2019-04-27T03:59:50.605Z,12.70
2019-04-27T04:02:24.242Z,12.50
2019-04-27T04:04:59.673Z,11.79
2019-04-27T04:07:33.286Z,11.38
2019-04-27T04:10:10.702Z,12.48
2019-04-27T04:12:43.833Z,11.41
2019-04-27T04:15:19.948Z,11.23
2019-04-27T04:17:52.852Z,11.09
2019-04-27T04:20:26.710Z,11.88
2019-04-27T04:23:03.350Z,11.30
2019-04-27T04:25:36.293Z,11.28
2019-04-27T04:28:10.640Z,11.12
2019-04-27T04:30:44.348Z,11.46
2019-04-27T04:33:20.203Z,10.85
2019-04-27T04:35:53.175Z,10.86
2019-04-27T04:38:30.462Z,10.60
2019-04-27T04:41:03.634Z,11.89
2019-04-27T04:43:39.802Z,10.82
2019-04-27T04:46:13.413Z,11.10
2019-04-27T04:48:50.176Z,10.68
2019-04-27T04:51:22.634Z,11.38
2019-04-27T04:53:56.365Z,11.25
2019-04-27T04:56:30.495Z,11.32
2019-04-27T04:59:05.469Z,11.87
2019-04-27T05:01:39.929Z,11.41
2019-04-27T05:04:15.608Z,11.20
2019-04-27T05:06:50.942Z,10.97
2019-04-27T05:09:25.183Z,10.97
2019-04-27T05:12:00.029Z,10.37
2019-04-27T05:14:34.383Z,10.92
2019-04-27T05:17:09.477Z,10.61
2019-04-27T05:19:43.867Z,11.15
2019-04-27T05:22:19.814Z,11.14
2019-04-27T05:24:53.939Z,11.53
2019-04-27T05:27:30.504Z,11.25
2019-04-27T05:30:04.209Z,9.98
2019-04-27T05:32:39.364Z,9.77
2019-04-27T05:35:13.197Z,9.83
2019-04-27T05:37:49.202Z,10.49
2019-04-27T05:40:23.755Z,10.43
2019-04-27T05:42:58.952Z,11.18
2019-04-27T05:46:19.152Z,9.65
2019-04-27T05:48:53.126Z,9.62
2019-04-27T05:51:36.401Z,9.89
2019-04-27T05:54:01.858Z,10.06
2019-04-27T05:56:35.675Z,10.16
2019-04-27T05:59:09.322Z,10.37
2019-04-27T06:01:43.053Z,9.71
2019-04-27T06:04:16.831Z,11.18
2019-04-27T06:06:50.597Z,9.75
2019-04-27T06:09:25.713Z,10.39
2019-04-27T06:12:01.395Z,10.30
2019-04-27T06:14:45.250Z,10.45
2019-04-27T06:17:19.536Z,9.62
2019-04-27T06:19:59.461Z,10.39
2019-04-27T06:22:33.572Z,10.50
2019-04-27T06:25:11.384Z,10.65
2019-04-27T06:27:44.191Z,10.66
2019-04-27T06:30:19.259Z,10.26
2019-04-27T06:32:53.322Z,10.13
2019-04-27T06:35:28.755Z,10.16
2019-04-27T06:38:02.167Z,10.14
2019-04-27T06:40:36.159Z,10.08
2019-04-27T06:43:10.481Z,10.37
2019-04-27T06:45:44.370Z,10.38
2019-04-27T06:48:19.454Z,10.87
2019-04-27T06:51:02.779Z,10.38
2019-04-27T06:53:29.135Z,11.29
2019-04-27T06:56:03.103Z,10.86
2019-04-27T06:58:36.784Z,10.52
2019-04-27T07:01:11.021Z,11.33
2019-04-27T07:03:44.996Z,11.40
2019-04-27T07:06:19.435Z,11.14
2019-04-27T07:08:55.319Z,10.60
2019-04-27T07:11:29.563Z,11.18
2019-04-27T07:14:04.812Z,10.39
2019-04-27T07:16:39.218Z,10.29
2019-04-27T07:19:14.932Z,10.81
2019-04-27T07:21:50.150Z,10.48
2019-04-27T07:24:24.481Z,10.73
2019-04-27T07:26:59.686Z,10.88
2019-04-27T07:29:34.636Z,10.08
2019-04-27T07:32:09.309Z,10.65
2019-04-27T07:34:46.036Z,10.25
2019-04-27T07:37:19.768Z,10.16
2019-04-27T07:39:54.193Z,11.21
2019-04-27T07:42:30.259Z,10.53
2019-04-27T07:45:02.996Z,9.71
2019-04-27T07:47:36.498Z,10.65
2019-04-27T07:50:12.265Z,10.41
2019-04-27T07:52:46.601Z,11.17
2019-04-27T07:55:20.321Z,10.04
2019-04-27T07:57:55.850Z,10.33
2019-04-27T08:00:29.836Z,11.21
2019-04-27T08:03:03.552Z,10.94
2019-04-27T08:05:39.034Z,10.35
2019-04-27T08:08:12.622Z,9.56
2019-04-27T08:10:50.061Z,10.58
2019-04-27T08:13:24.461Z,10.26
2019-04-27T08:16:05.423Z,10.71
2019-04-27T08:18:40.890Z,11.23
2019-04-27T08:21:14.891Z,10.88
2019-04-27T08:23:49.065Z,10.40
2019-04-27T08:26:22.768Z,10.78
2019-04-27T08:28:56.583Z,10.81
2019-04-27T08:31:30.546Z,11.18
2019-04-27T08:34:04.328Z,11.06
2019-04-27T08:36:39.410Z,11.70
2019-04-27T08:39:13.632Z,11.55
2019-04-27T08:41:49.372Z,11.39
2019-04-27T08:44:25.080Z,10.59
2019-04-27T08:47:00.073Z,11.55
2019-04-27T08:49:35.430Z,11.40
2019-04-27T08:52:09.859Z,11.16
2019-04-27T08:54:44.515Z,10.75
2019-04-27T08:57:18.804Z,10.83
2019-04-27T08:59:53.076Z,10.54
2019-04-27T09:02:38.916Z,10.79
2019-04-27T09:05:01.620Z,11.74
2019-04-27T09:07:35.452Z,11.97
2019-04-27T09:10:11.418Z,11.80
2019-04-27T09:12:47.235Z,11.67
2019-04-27T09:15:24.492Z,11.88
2019-04-27T09:18:01.125Z,12.65
2019-04-27T09:20:35.111Z,11.52
2019-04-27T09:23:18.784Z,11.50
2019-04-27T09:25:43.993Z,11.18
2019-04-27T09:28:17.972Z,11.29
2019-04-27T09:30:53.522Z,12.40
2019-04-27T09:33:27.160Z,11.64
2019-04-27T09:36:01.367Z,11.73
2019-04-27T09:38:35.799Z,12.53
2019-04-27T09:41:09.691Z,12.75
2019-04-27T09:43:43.921Z,12.81
2019-04-27T09:46:17.408Z,12.63
2019-04-27T09:48:51.216Z,13.63
2019-04-27T09:51:25.661Z,12.90
2019-04-27T09:53:59.609Z,13.20
2019-04-27T09:56:33.420Z,12.38
2019-04-27T09:59:07.410Z,13.65
2019-04-27T10:01:40.957Z,13.05
2019-04-27T10:04:15.696Z,13.88
2019-04-27T10:06:49.816Z,13.56
2019-04-27T10:09:23.815Z,13.77
2019-04-27T10:11:57.753Z,14.25
2019-04-27T10:14:34.472Z,14.29
2019-04-27T10:17:08.548Z,13.91
2019-04-27T10:19:42.838Z,14.01
2019-04-27T10:22:17.902Z,13.73
2019-04-27T10:24:51.629Z,14.83
2019-04-27T10:27:26.162Z,14.95
2019-04-27T10:30:00.489Z,14.97
2019-04-27T10:32:42.755Z,14.28
2019-04-27T10:35:17.275Z,14.29
2019-04-27T10:37:54.182Z,14.36
2019-04-27T10:40:31.628Z,14.54
2019-04-27T10:43:06.278Z,15.01
2019-04-27T10:45:40.294Z,14.91
2019-04-27T10:48:17.949Z,15.34
2019-04-27T10:50:51.987Z,15.07
2019-04-27T10:53:26.860Z,14.97
2019-04-27T10:56:01.468Z,15.44
2019-04-27T10:58:36.996Z,16.71
2019-04-27T11:01:11.312Z,16.27
2019-04-27T11:03:46.184Z,15.32
2019-04-27T11:06:20.487Z,15.42
2019-04-27T11:08:55.962Z,16.20
2019-04-27T11:11:29.319Z,16.70
2019-04-27T11:14:02.900Z,16.98
2019-04-27T11:16:37.810Z,16.73
2019-04-27T11:19:11.791Z,16.14
2019-04-27T11:21:46.354Z,15.61
2019-04-27T11:24:20.183Z,16.98
2019-04-27T11:26:56.709Z,16.65
2019-04-27T11:29:31.573Z,16.71
2019-04-27T11:32:06.260Z,17.73
2019-04-27T11:34:40.964Z,17.92
2019-04-27T11:37:16.369Z,17.98
2019-04-27T11:39:55.858Z,17.55
2019-04-27T11:42:30.253Z,17.39
2019-04-27T11:45:07.596Z,17.95
2019-04-27T11:47:42.948Z,18.54
2019-04-27T11:50:20.370Z,18.05
2019-04-27T11:52:57.987Z,18.74
2019-04-27T11:55:34.497Z,17.84
2019-04-27T11:58:09.740Z,19.58
2019-04-27T12:00:46.289Z,18.87
2019-04-27T12:03:22.187Z,18.83
2019-04-27T12:06:00.121Z,19.05
2019-04-27T12:08:33.551Z,18.22
2019-04-27T12:11:09.039Z,19.11
2019-04-27T12:13:46.065Z,18.95
2019-04-27T12:16:21.068Z,19.21
2019-04-27T12:18:57.888Z,18.96
2019-04-27T12:21:36.218Z,18.85
2019-04-27T12:24:11.522Z,17.52
2019-04-27T12:26:46.848Z,17.59
2019-04-27T12:29:22.367Z,19.09
2019-04-27T12:34:52.822Z,18.06
2019-04-27T12:37:33.385Z,18.57
2019-04-27T12:40:10.540Z,18.39
2019-04-27T12:42:46.842Z,18.73
2019-04-27T12:45:22.660Z,19.00
2019-04-27T12:48:04.594Z,19.21
2019-04-27T12:50:46.122Z,19.46
2019-04-27T12:53:25.848Z,19.73
2019-04-27T12:56:06.465Z,20.11
2019-04-27T12:58:56.480Z,20.05
2019-04-27T13:01:36.084Z,20.75
2019-04-27T13:04:16.901Z,20.42
2019-04-27T13:06:52.074Z,20.99
2019-04-27T13:09:27.000Z,21.36
2019-04-27T13:12:01.730Z,20.63
2019-04-27T13:14:36.566Z,20.85
2019-04-27T13:17:11.256Z,21.04
2019-04-27T13:19:47.491Z,21.46
2019-04-27T13:22:27.267Z,21.69
2019-04-27T13:25:08.442Z,22.15
2019-04-27T13:27:45.310Z,22.59
2019-04-27T13:30:20.599Z,22.33
2019-04-27T13:32:56.253Z,22.53
2019-04-27T13:35:34.274Z,22.60
2019-04-27T13:38:09.444Z,22.74
2019-04-27T13:40:43.580Z,22.75
2019-04-27T13:43:19.410Z,22.86
2019-04-27T13:45:53.673Z,22.98
2019-04-27T13:48:28.581Z,23.74
2019-04-27T13:51:02.954Z,23.73
2019-04-27T13:53:37.762Z,24.15
2019-04-27T13:56:13.304Z,23.87
2019-04-27T13:58:48.630Z,24.01
2019-04-27T14:01:23.137Z,24.01
2019-04-27T14:04:07.184Z,24.41
2019-04-27T14:06:49.093Z,24.18
2019-04-27T14:09:26.450Z,24.66
2019-04-27T14:12:03.053Z,24.95
2019-04-27T14:14:40.831Z,24.64
2019-04-27T14:17:19.333Z,24.83
2019-04-27T14:19:59.416Z,24.92
2019-04-27T14:22:34.953Z,24.72
2019-04-27T14:25:10.455Z,24.70
2019-04-27T14:27:46.467Z,24.81
2019-04-27T14:30:21.071Z,24.97
2019-04-27T14:33:00.843Z,24.45
2019-04-27T14:35:34.997Z,25.76
2019-04-27T14:38:09.141Z,24.21
2019-04-27T14:40:43.179Z,24.55
2019-04-27T14:43:18.852Z,24.21
2019-04-27T14:45:55.121Z,24.54
2019-04-27T14:48:29.466Z,23.99
2019-04-27T14:51:03.304Z,24.80
2019-04-27T14:53:38.686Z,24.51
2019-04-27T14:56:12.558Z,24.48
2019-04-27T14:58:49.473Z,23.71
2019-04-27T15:01:24.991Z,23.46
2019-04-27T15:04:00.480Z,23.49
2019-04-27T15:06:35.138Z,23.13
2019-04-27T15:09:13.395Z,23.19
2019-04-27T15:11:49.330Z,23.54
2019-04-27T15:14:23.738Z,23.28
2019-04-27T15:16:59.277Z,23.09
2019-04-27T15:19:33.524Z,23.80
2019-04-27T15:22:07.739Z,23.91
2019-04-27T15:25:07.780Z,24.13
2019-04-27T15:27:22.927Z,24.67
2019-04-27T15:30:03.126Z,25.43
2019-04-27T15:32:33.509Z,25.82
2019-04-27T15:35:09.566Z,26.13
2019-04-27T15:37:41.811Z,26.13
2019-04-27T15:40:15.802Z,26.72
2019-04-27T15:42:52.922Z,26.84
2019-04-27T15:45:24.531Z,27.67
2019-04-27T15:47:58.498Z,27.55
2019-04-27T15:50:32.451Z,27.95
2019-04-27T15:53:09.459Z,28.40
2019-04-27T15:55:41.449Z,28.41
2019-04-27T15:58:20.825Z,28.84
2019-04-27T16:00:56.567Z,29.13
2019-04-27T16:03:32.037Z,29.46
2019-04-27T16:06:08.105Z,29.45
2019-04-27T16:08:45.098Z,30.01
2019-04-27T16:11:19.029Z,29.93
2019-04-27T16:13:52.623Z,29.94
2019-04-27T16:16:29.094Z,30.03
2019-04-27T16:19:11.408Z,30.71
2019-04-27T16:21:47.695Z,31.09
2019-04-27T16:24:21.169Z,30.84
2019-04-27T16:26:56.069Z,31.28
2019-04-27T16:29:31.404Z,31.74
2019-04-27T16:32:07.194Z,32.22
2019-04-27T16:34:41.243Z,32.99
2019-04-27T16:37:17.976Z,33.47
2019-04-27T16:39:49.581Z,34.35
2019-04-27T16:42:23.449Z,35.21
2019-04-27T16:44:58.165Z,36.22
2019-04-27T16:47:31.598Z,36.81
2019-04-27T16:50:08.208Z,37.02
2019-04-27T16:52:41.464Z,37.42
2019-04-27T16:55:18.062Z,37.96
2019-04-27T16:57:50.148Z,37.96
2019-04-27T17:00:26.508Z,38.29
2019-04-27T17:03:02.865Z,38.54
2019-04-27T17:05:37.998Z,38.86
2019-04-27T17:08:21.600Z,38.50
2019-04-27T17:10:47.361Z,38.22
2019-04-27T17:13:22.522Z,38.56
2019-04-27T17:15:58.766Z,37.97
2019-04-27T17:18:31.077Z,38.04
2019-04-27T17:21:16.081Z,38.04
2019-04-27T17:23:41.681Z,37.61
2019-04-27T17:26:21.903Z,37.72
2019-04-27T17:28:50.844Z,37.11
2019-04-27T17:31:26.457Z,37.34
2019-04-27T17:34:00.661Z,37.24
2019-04-27T17:36:34.307Z,36.95
2019-04-27T17:39:10.457Z,37.90
2019-04-27T17:41:49.254Z,37.04
2019-04-27T17:44:22.647Z,37.66
2019-04-27T17:46:53.867Z,37.45
2019-04-27T17:49:28.093Z,37.59
2019-04-27T17:52:01.975Z,37.60
2019-04-27T17:54:35.684Z,37.75
2019-04-27T17:57:13.290Z,37.94
2019-04-27T17:59:44.155Z,37.92
2019-04-27T18:02:18.410Z,38.52
2019-04-27T18:04:52.264Z,39.68
2019-04-27T18:07:25.868Z,40.53
2019-04-27T18:09:59.901Z,41.09
2019-04-27T18:12:34.933Z,42.12
2019-04-27T18:15:10.605Z,42.86
2019-04-27T18:17:48.333Z,43.05
2019-04-27T18:20:21.060Z,43.99
2019-04-27T18:22:54.916Z,44.91
2019-04-27T18:25:28.694Z,45.16
2019-04-27T18:28:02.593Z,45.39
2019-04-27T18:30:38.642Z,46.12
2019-04-27T18:33:11.367Z,46.12
2019-04-27T18:35:45.113Z,45.88
2019-04-27T18:38:18.744Z,46.40
2019-04-27T18:40:53.826Z,46.42
2019-04-27T18:43:28.608Z,46.85
2019-04-27T18:46:02.106Z,46.93
2019-04-27T18:48:37.755Z,47.02
2019-04-27T18:51:10.899Z,46.99
2019-04-27T18:53:44.546Z,47.39
2019-04-27T18:56:19.028Z,48.00
2019-04-27T18:58:53.034Z,47.99
2019-04-27T19:01:28.837Z,47.90
2019-04-27T19:04:01.925Z,47.90
2019-04-27T19:06:35.717Z,48.23
2019-04-27T19:09:10.793Z,48.61
2019-04-27T19:11:54.153Z,48.86
2019-04-27T19:14:19.801Z,49.08
2019-04-27T19:16:53.601Z,49.09
2019-04-27T19:19:28.038Z,48.72
2019-04-27T19:22:01.681Z,49.20
2019-04-27T19:24:35.129Z,49.60
2019-04-27T19:27:16.197Z,49.84
2019-04-27T19:29:44.221Z,49.64
2019-04-27T19:32:19.264Z,50.06
2019-04-27T19:34:53.165Z,50.27
2019-04-27T19:37:28.550Z,50.67
2019-04-27T19:40:01.763Z,51.26
2019-04-27T19:42:38.643Z,51.02
2019-04-27T19:45:12.589Z,51.12
2019-04-27T19:47:46.267Z,51.13
2019-04-27T19:50:23.895Z,51.56
2019-04-27T19:52:58.712Z,51.10
2019-04-27T19:55:34.329Z,51.90
2019-04-27T19:58:22.072Z,51.91
2019-04-27T20:00:55.999Z,51.70
2019-04-27T20:03:29.648Z,51.97
2019-04-27T20:06:03.173Z,52.21
2019-04-27T20:08:44.833Z,52.22
2019-04-27T20:11:18.382Z,52.78
2019-04-27T20:14:10.983Z,52.85
2019-04-27T20:16:44.238Z,52.48
2019-04-27T20:19:18.471Z,52.39
2019-04-27T20:21:52.369Z,53.60
2019-04-27T20:24:26.569Z,53.47
2019-04-27T20:27:02.605Z,53.57
2019-04-27T20:29:35.781Z,53.49
2019-04-27T20:32:11.322Z,53.19
2019-04-27T20:34:45.800Z,54.53
2019-04-27T20:37:20.955Z,54.03
2019-04-27T20:39:54.324Z,53.73
2019-04-27T20:42:27.969Z,53.90
2019-04-27T20:45:01.970Z,54.34
2019-04-27T20:47:36.048Z,54.68
2019-04-27T20:50:10.527Z,55.01
2019-04-27T20:52:45.533Z,55.10
2019-04-27T20:55:21.221Z,55.09
2019-04-27T20:58:01.664Z,55.21
2019-04-27T21:00:29.321Z,55.34
2019-04-27T21:03:11.746Z,55.22
2019-04-27T21:05:44.793Z,55.15
2019-04-27T21:08:18.538Z,55.46
2019-04-27T21:11:01.554Z,55.86
2019-04-27T21:13:35.040Z,56.54
2019-04-27T21:16:16.452Z,57.07
2019-04-27T21:18:58.773Z,56.15
2019-04-27T21:21:32.728Z,56.35
2019-04-27T21:24:06.946Z,56.22
2019-04-27T21:26:41.986Z,56.16
2019-04-27T21:29:18.563Z,56.64
2019-04-27T21:31:53.054Z,56.48
2019-04-27T21:34:43.356Z,56.57
2019-04-27T21:37:17.332Z,57.31
2019-04-27T21:39:53.310Z,56.36
2019-04-27T21:42:27.873Z,56.89
2019-04-27T21:45:01.412Z,56.32
2019-04-27T21:47:35.055Z,56.86
2019-04-27T21:50:11.964Z,56.47
2019-04-27T21:52:46.378Z,56.43
2019-04-27T21:55:21.748Z,56.23
2019-04-27T21:57:55.293Z,55.84
2019-04-27T22:00:37.873Z,56.13
2019-04-27T22:03:11.727Z,56.27
2019-04-27T22:05:45.483Z,56.35
2019-04-27T22:08:19.209Z,56.90
2019-04-27T22:10:52.973Z,56.56
2019-04-27T22:13:26.569Z,56.11
2019-04-27T22:16:00.211Z,56.75
2019-04-27T22:18:33.841Z,55.96
2019-04-27T22:21:07.602Z,56.45
2019-04-27T22:23:41.895Z,56.34
2019-04-27T22:26:15.706Z,56.13
2019-04-27T22:28:51.813Z,56.61
2019-04-27T22:31:24.515Z,56.54
2019-04-27T22:33:58.303Z,56.83
2019-04-27T22:36:31.985Z,56.06
2019-04-27T22:39:06.922Z,56.54
2019-04-27T22:41:41.683Z,55.96
2019-04-27T22:44:16.023Z,56.84
2019-04-27T22:46:49.661Z,56.32
2019-04-27T22:49:23.355Z,55.88
2019-04-27T22:51:58.920Z,55.90
2019-04-27T22:54:32.467Z,55.33
2019-04-27T22:57:06.619Z,55.87
2019-04-27T22:59:41.466Z,55.19
2019-04-27T23:02:15.472Z,54.34
2019-04-27T23:04:51.641Z,55.84
2019-04-27T23:07:25.316Z,54.05
2019-04-27T23:10:01.332Z,54.99
2019-04-27T23:12:35.317Z,54.43
2019-04-27T23:15:09.774Z,54.46
2019-04-27T23:17:43.623Z,53.93
2019-04-27T23:20:17.205Z,53.63
2019-04-27T23:22:52.759Z,53.38
2019-04-27T23:25:27.811Z,53.92
2019-04-27T23:28:01.312Z,53.90
2019-04-27T23:30:35.126Z,52.91
2019-04-27T23:33:11.141Z,52.69
2019-04-27T23:35:44.984Z,52.67
2019-04-27T23:38:21.036Z,52.39
2019-04-27T23:40:55.086Z,52.14
2019-04-27T23:43:28.663Z,52.47
2019-04-27T23:46:03.340Z,51.75
2019-04-27T23:48:51.927Z,51.62
2019-04-27T23:51:25.228Z,51.20
2019-04-27T23:53:58.897Z,51.07
2019-04-27T23:56:33.019Z,50.87
2019-04-27T23:59:06.981Z,50.57
